createdAt,value
2023-03-04T00:03:15.479Z,92.90
2023-03-04T00:07:18.888Z,92.60
2023-03-04T00:11:20.847Z,92.40
2023-03-04T00:15:22.685Z,92.10
2023-03-04T00:19:24.529Z,92.00
2023-03-04T00:23:26.506Z,92.50
2023-03-04T00:27:28.438Z,92.50
2023-03-04T00:31:30.354Z,92.40
2023-03-04T00:35:32.350Z,92.20
2023-03-04T00:39:34.235Z,91.90
2023-03-04T00:43:36.127Z,92.20
2023-03-04T00:47:38.000Z,92.30
2023-03-04T00:51:39.795Z,91.80
2023-03-04T00:55:41.731Z,91.20
2023-03-04T00:59:43.898Z,90.70
2023-03-04T01:03:45.800Z,90.80
2023-03-04T01:07:47.613Z,90.80
2023-03-04T01:11:49.466Z,91.60
2023-03-04T01:15:52.413Z,91.90
2023-03-04T01:19:54.288Z,91.60
2023-03-04T01:23:56.199Z,91.30
2023-03-04T01:27:58.092Z,91.10
2023-03-04T01:32:00.327Z,90.80
2023-03-04T01:36:02.361Z,90.80
2023-03-04T01:40:05.743Z,90.90
2023-03-04T01:44:10.318Z,90.80
2023-03-04T01:48:15.233Z,91.20
2023-03-04T01:52:17.133Z,91.40
2023-03-04T01:56:52.255Z,91.00
2023-03-04T02:00:54.096Z,90.50
2023-03-04T02:04:55.961Z,90.50
2023-03-04T02:08:58.276Z,90.50
2023-03-04T02:13:01.459Z,90.20
2023-03-04T02:17:03.371Z,90.30
2023-03-04T02:21:19.305Z,90.30
2023-03-04T02:25:33.438Z,90.30
2023-03-04T02:29:35.476Z,90.30
2023-03-04T02:33:37.426Z,90.10
2023-03-04T02:37:39.268Z,90.20
2023-03-04T02:41:41.474Z,90.20
2023-03-04T02:45:49.452Z,90.30
2023-03-04T02:49:51.348Z,90.90
2023-03-04T02:53:53.290Z,90.90
2023-03-04T02:57:56.644Z,91.10
2023-03-04T03:01:59.191Z,91.20
2023-03-04T03:06:01.235Z,91.00
2023-03-04T03:10:03.649Z,91.00
2023-03-04T03:14:06.445Z,90.90
2023-03-04T03:18:12.423Z,90.80
2023-03-04T03:22:14.401Z,90.80
2023-03-04T03:26:17.160Z,90.80
2023-03-04T03:30:19.408Z,90.90
2023-03-04T03:34:21.421Z,90.70
2023-03-04T03:38:24.337Z,91.70
2023-03-04T03:42:26.251Z,92.90
2023-03-04T03:46:28.095Z,94.10
2023-03-04T03:50:30.027Z,93.50
2023-03-04T03:54:31.874Z,92.70
2023-03-04T03:58:33.762Z,92.00
2023-03-04T04:02:35.665Z,91.90
2023-03-04T04:06:37.647Z,92.20
2023-03-04T04:10:39.609Z,91.90
2023-03-04T04:14:41.598Z,91.70
2023-03-04T04:18:43.398Z,91.60
2023-03-04T04:22:45.282Z,91.90
2023-03-04T04:26:47.102Z,91.50
2023-03-04T04:30:49.012Z,91.20
2023-03-04T04:34:50.886Z,90.90
2023-03-04T04:38:52.946Z,90.80
2023-03-04T04:42:54.980Z,90.60
2023-03-04T04:46:56.888Z,90.40
2023-03-04T04:50:58.687Z,90.70
2023-03-04T04:55:00.822Z,90.60
2023-03-04T04:59:04.784Z,90.60
2023-03-04T05:03:06.573Z,90.30
2023-03-04T05:07:08.443Z,90.30
2023-03-04T05:11:10.318Z,90.30
2023-03-04T05:15:12.387Z,90.60
2023-03-04T05:19:14.268Z,91.60
2023-03-04T05:23:16.073Z,91.30
2023-03-04T05:27:18.031Z,91.00
2023-03-04T05:31:19.896Z,90.60
2023-03-04T05:35:21.925Z,90.50
2023-03-04T05:39:23.790Z,90.70
2023-03-04T05:43:29.572Z,90.70
2023-03-04T05:47:31.570Z,90.30
2023-03-04T05:51:33.428Z,90.20
2023-03-04T05:55:35.243Z,89.70
2023-03-04T05:59:37.055Z,90.20
2023-03-04T06:03:39.416Z,89.70
2023-03-04T06:07:43.234Z,90.10
2023-03-04T06:11:45.082Z,90.10
2023-03-04T06:15:47.405Z,90.00
2023-03-04T06:19:49.315Z,90.00
2023-03-04T06:23:51.236Z,90.30
2023-03-04T06:27:55.152Z,90.60
2023-03-04T06:31:57.120Z,90.70
2023-03-04T06:35:59.015Z,90.80
2023-03-04T06:40:00.915Z,90.70
2023-03-04T06:44:02.851Z,90.50
2023-03-04T06:48:04.877Z,90.60
2023-03-04T06:52:07.816Z,90.40
2023-03-04T06:56:12.614Z,90.40
2023-03-04T07:00:15.197Z,90.40
2023-03-04T07:04:17.078Z,90.60
2023-03-04T07:08:21.162Z,90.80
2023-03-04T07:12:23.876Z,91.10
2023-03-04T07:16:25.804Z,91.20
2023-03-04T07:20:29.600Z,91.30
2023-03-04T07:24:32.599Z,91.70
2023-03-04T07:28:35.780Z,91.90
2023-03-04T07:32:37.783Z,92.10
2023-03-04T07:36:40.097Z,92.00
2023-03-04T07:40:41.939Z,91.90
2023-03-04T07:44:43.776Z,92.10
2023-03-04T07:48:45.856Z,92.20
2023-03-04T07:52:48.613Z,93.70
2023-03-04T07:56:50.512Z,93.70
2023-03-04T08:00:52.359Z,94.90
2023-03-04T08:04:54.330Z,93.90
2023-03-04T08:09:01.360Z,92.80
2023-03-04T08:13:03.194Z,93.50
2023-03-04T08:17:05.020Z,92.80
2023-03-04T08:21:11.957Z,93.50
2023-03-04T08:25:13.768Z,96.10
2023-03-04T08:29:20.571Z,96.00
2023-03-04T08:33:22.432Z,96.20
2023-03-04T08:37:24.372Z,96.40
2023-03-04T08:41:27.567Z,95.20
2023-03-04T08:45:29.476Z,93.70
2023-03-04T08:49:31.399Z,93.90
2023-03-04T08:53:33.255Z,94.20
2023-03-04T08:57:35.072Z,94.00
2023-03-04T09:01:37.153Z,93.10
2023-03-04T09:05:39.184Z,93.30
2023-03-04T09:09:41.383Z,95.10
2023-03-04T09:13:43.408Z,95.60
2023-03-04T09:17:45.475Z,95.10
2023-03-04T09:21:47.293Z,94.90
2023-03-04T09:25:49.601Z,95.10
2023-03-04T09:29:51.509Z,94.10
2023-03-04T09:33:54.473Z,92.60
2023-03-04T09:37:57.285Z,92.40
2023-03-04T09:42:00.084Z,92.90
2023-03-04T09:46:05.257Z,93.60
2023-03-04T09:50:12.147Z,93.50
2023-03-04T09:54:33.381Z,93.10
2023-03-04T09:58:53.908Z,92.80
2023-03-04T10:03:20.945Z,92.80
2023-03-04T10:07:36.426Z,93.20
2023-03-04T10:12:01.578Z,93.60
2023-03-04T10:16:07.036Z,93.20
2023-03-04T10:20:22.178Z,92.00
2023-03-04T10:24:28.813Z,92.20
2023-03-04T10:28:31.873Z,92.50
2023-03-04T10:32:33.744Z,93.30
2023-03-04T10:36:59.468Z,94.00
2023-03-04T10:41:02.304Z,93.90
2023-03-04T10:45:04.650Z,92.40
2023-03-04T10:49:06.772Z,92.00
2023-03-04T10:53:28.458Z,93.90
2023-03-04T10:57:38.458Z,94.40
2023-03-04T11:01:41.087Z,94.20
2023-03-04T11:05:42.975Z,92.70
2023-03-04T11:09:45.421Z,92.80
2023-03-04T11:13:58.588Z,95.10
2023-03-04T11:18:15.790Z,95.40
2023-03-04T11:22:20.887Z,94.10
2023-03-04T11:26:33.072Z,94.50
2023-03-04T11:30:45.466Z,94.80
2023-03-04T11:34:57.064Z,93.60
2023-03-04T11:39:00.069Z,93.70
2023-03-04T11:43:04.982Z,92.70
2023-03-04T11:47:33.332Z,92.20
2023-03-04T11:52:07.186Z,92.20
2023-03-04T11:56:43.702Z,95.30
2023-03-04T12:00:45.602Z,95.20
2023-03-04T12:05:08.875Z,93.60
2023-03-04T12:09:10.666Z,93.60
2023-03-04T12:13:42.948Z,94.20
2023-03-04T12:18:03.544Z,94.50
2023-03-04T12:22:24.026Z,94.80
2023-03-04T12:26:47.461Z,92.90
2023-03-04T12:31:04.128Z,92.20
2023-03-04T12:35:05.989Z,94.10
2023-03-04T12:39:20.493Z,92.80
2023-03-04T12:43:45.897Z,93.10
2023-03-04T12:48:08.589Z,93.00
2023-03-04T12:52:10.388Z,94.10
2023-03-04T12:56:38.198Z,94.50
2023-03-04T13:00:50.236Z,93.90
2023-03-04T13:05:24.479Z,93.00
2023-03-04T13:09:41.937Z,93.10
2023-03-04T13:13:43.898Z,92.90
2023-03-04T13:18:31.392Z,92.20
2023-03-04T13:22:39.451Z,93.20
2023-03-04T13:26:41.281Z,93.00
2023-03-04T13:31:24.134Z,91.80
2023-03-04T13:36:01.931Z,91.30
2023-03-04T13:40:27.302Z,92.30
2023-03-04T13:44:42.639Z,92.40
2023-03-04T13:49:02.047Z,92.20
2023-03-04T13:53:40.105Z,92.40
2023-03-04T13:57:49.735Z,92.50
2023-03-04T14:02:17.108Z,93.00
2023-03-04T14:06:27.215Z,93.10
2023-03-04T14:10:29.301Z,92.60
2023-03-04T14:14:43.134Z,92.00
2023-03-04T14:18:45.038Z,93.00
2023-03-04T14:22:46.959Z,92.80
2023-03-04T14:26:49.186Z,94.20
2023-03-04T14:30:53.603Z,93.60
2023-03-04T14:35:01.464Z,93.00
2023-03-04T14:39:06.793Z,92.00
2023-03-04T14:43:17.884Z,91.90
2023-03-04T14:47:36.766Z,91.50
2023-03-04T14:51:41.570Z,90.70
2023-03-04T14:56:06.005Z,91.80
2023-03-04T15:00:19.849Z,91.90
2023-03-04T15:04:21.985Z,91.40
2023-03-04T15:08:35.107Z,90.60
2023-03-04T15:12:38.186Z,91.80
2023-03-04T15:16:56.985Z,91.90
2023-03-04T15:20:58.932Z,92.60
2023-03-04T15:25:00.825Z,91.80
2023-03-04T15:29:10.956Z,91.10
2023-03-04T15:33:13.613Z,91.10
2023-03-04T15:37:24.774Z,92.60
2023-03-04T15:41:27.332Z,93.10
2023-03-04T15:45:38.365Z,94.00
2023-03-04T15:49:41.948Z,93.60
2023-03-04T15:53:52.798Z,93.00
2023-03-04T15:57:57.329Z,93.90
2023-03-04T16:01:59.180Z,93.30
2023-03-04T16:06:01.086Z,93.40
2023-03-04T16:10:13.137Z,92.60
2023-03-04T16:14:16.230Z,91.60
2023-03-04T16:18:18.273Z,92.00
2023-03-04T16:22:24.538Z,91.40
2023-03-04T16:26:28.533Z,92.00
2023-03-04T16:30:31.458Z,92.80
2023-03-04T16:34:33.380Z,93.70
2023-03-04T16:38:35.346Z,93.50
2023-03-04T16:42:37.236Z,91.90
2023-03-04T16:46:39.123Z,91.10
2023-03-04T16:50:41.779Z,90.40
2023-03-04T16:54:45.591Z,90.90
2023-03-04T16:58:48.318Z,93.40
2023-03-04T17:02:55.992Z,92.90
2023-03-04T17:06:57.991Z,92.90
2023-03-04T17:10:59.905Z,92.00
2023-03-04T17:15:04.127Z,91.90
2023-03-04T17:19:05.959Z,92.20
2023-03-04T17:23:09.117Z,93.90
2023-03-04T17:27:11.186Z,92.90
2023-03-04T17:31:16.487Z,93.00
2023-03-04T17:35:18.440Z,93.20
2023-03-04T17:39:20.455Z,93.20
2023-03-04T17:43:22.956Z,92.80
2023-03-04T17:47:24.835Z,92.90
2023-03-04T17:51:37.746Z,92.50
2023-03-04T17:55:39.569Z,91.60
2023-03-04T17:59:41.631Z,91.30
2023-03-04T18:03:43.503Z,92.50
2023-03-04T18:07:45.312Z,93.10
2023-03-04T18:11:47.218Z,91.80
2023-03-04T18:15:49.185Z,91.00
2023-03-04T18:19:51.164Z,90.40
2023-03-04T18:23:54.687Z,90.10
2023-03-04T18:27:56.540Z,90.00
2023-03-04T18:31:58.519Z,89.50
2023-03-04T18:36:04.149Z,89.60
2023-03-04T18:40:06.744Z,89.60
2023-03-04T18:44:09.854Z,89.70
2023-03-04T18:48:11.766Z,89.90
2023-03-04T18:52:14.449Z,89.40
2023-03-04T18:56:22.863Z,89.50
2023-03-04T19:00:25.481Z,89.10
2023-03-04T19:04:28.689Z,88.30
2023-03-04T19:08:30.569Z,88.80
2023-03-04T19:12:33.900Z,88.90
2023-03-04T19:16:35.790Z,89.40
2023-03-04T19:20:40.804Z,89.40
2023-03-04T19:24:42.707Z,88.70
2023-03-04T19:28:44.851Z,88.40
2023-03-04T19:32:47.500Z,88.20
2023-03-04T19:36:49.390Z,87.70
2023-03-04T19:40:51.238Z,88.40
2023-03-04T19:44:53.122Z,88.50
2023-03-04T19:48:55.069Z,89.20
2023-03-04T19:52:57.226Z,88.70
2023-03-04T19:56:59.101Z,88.50
2023-03-04T20:01:01.098Z,88.60
2023-03-04T20:05:03.184Z,89.00
2023-03-04T20:09:05.511Z,88.90
2023-03-04T20:13:08.902Z,89.30
2023-03-04T20:17:15.090Z,89.70
2023-03-04T20:21:17.194Z,89.20
2023-03-04T20:25:19.096Z,88.60
2023-03-04T20:29:21.202Z,88.40
2023-03-04T20:33:23.100Z,88.80
2023-03-04T20:37:25.404Z,89.40
2023-03-04T20:41:27.330Z,88.70
2023-03-04T20:45:29.173Z,89.50
2023-03-04T20:49:31.305Z,89.30
2023-03-04T20:53:33.122Z,89.10
2023-03-04T20:57:35.007Z,89.00
2023-03-04T21:01:38.838Z,88.70
2023-03-04T21:05:40.746Z,88.80
2023-03-04T21:09:43.993Z,88.60
2023-03-04T21:13:53.645Z,88.80
2023-03-04T21:17:55.579Z,88.70
2023-03-04T21:21:58.901Z,88.40
2023-03-04T21:26:00.765Z,89.00
2023-03-04T21:30:02.590Z,89.20
2023-03-04T21:34:04.562Z,89.00
2023-03-04T21:38:06.586Z,89.00
2023-03-04T21:42:08.450Z,89.00
2023-03-04T21:46:11.423Z,89.40
2023-03-04T21:50:13.329Z,89.50
2023-03-04T21:54:15.429Z,88.70
2023-03-04T21:58:17.344Z,88.90
2023-03-04T22:02:21.876Z,89.50
2023-03-04T22:06:26.514Z,89.80
2023-03-04T22:10:28.321Z,89.50
2023-03-04T22:14:30.813Z,89.00
2023-03-04T22:18:33.044Z,88.60
2023-03-04T22:22:34.907Z,89.10
2023-03-04T22:26:37.953Z,89.80
2023-03-04T22:30:39.735Z,90.00
2023-03-04T22:34:41.697Z,89.70
2023-03-04T22:38:44.572Z,89.60
2023-03-04T22:42:48.058Z,89.80
2023-03-04T22:46:49.975Z,89.40
2023-03-04T22:50:51.859Z,89.50
2023-03-04T22:54:53.816Z,90.20
2023-03-04T22:58:55.775Z,90.20
2023-03-04T23:02:58.335Z,91.00
2023-03-04T23:07:00.208Z,91.20
2023-03-04T23:11:02.991Z,91.50
2023-03-04T23:15:05.962Z,91.70
2023-03-04T23:19:10.739Z,92.40
2023-03-04T23:23:12.635Z,91.90
2023-03-04T23:27:14.477Z,91.20
2023-03-04T23:31:16.918Z,91.70
2023-03-04T23:35:18.928Z,91.10
2023-03-04T23:39:20.887Z,91.20
2023-03-04T23:43:22.823Z,91.20
2023-03-04T23:47:24.800Z,91.10
2023-03-04T23:51:29.150Z,90.90
2023-03-04T23:55:34.108Z,90.80
2023-03-04T23:59:37.846Z,91.00
